createdAt,value
2017-07-20T00:02:03.526Z,35.37
2017-07-20T00:04:29.625Z,26.30
2017-07-20T00:06:55.720Z,26.40
2017-07-20T00:09:21.841Z,30.10
2017-07-20T00:11:47.928Z,24.63
2017-07-20T00:14:14.046Z,39.93
2017-07-20T00:16:40.149Z,26.33
2017-07-20T00:19:06.256Z,25.80
2017-07-20T00:21:32.409Z,26.63
2017-07-20T00:23:58.512Z,21.07
2017-07-20T00:26:24.639Z,29.87
2017-07-20T00:28:50.755Z,24.53
2017-07-20T00:31:16.858Z,30.50
2017-07-20T00:33:43.000Z,27.63
2017-07-20T00:36:09.832Z,32.90
2017-07-20T00:38:36.773Z,27.70
2017-07-20T00:41:02.893Z,29.63
2017-07-20T00:43:29.018Z,30.73
2017-07-20T00:45:55.113Z,38.20
2017-07-20T00:48:21.226Z,31.80
2017-07-20T00:50:47.341Z,31.20
2017-07-20T00:53:13.517Z,38.83
2017-07-20T00:55:39.648Z,40.30
2017-07-20T00:58:05.760Z,42.90
2017-07-20T01:00:31.917Z,38.63
2017-07-20T01:02:58.037Z,33.40
2017-07-20T01:05:24.185Z,47.30
2017-07-20T01:07:50.268Z,42.73
2017-07-20T01:10:16.414Z,43.27
2017-07-20T01:12:42.546Z,41.33
2017-07-20T01:15:08.653Z,43.77
2017-07-20T01:17:35.525Z,44.50
2017-07-20T01:20:01.634Z,44.70
2017-07-20T01:22:27.789Z,48.30
2017-07-20T01:24:53.877Z,49.17
2017-07-20T01:27:20.333Z,46.07
2017-07-20T01:29:47.172Z,44.63
2017-07-20T01:32:13.409Z,48.00
2017-07-20T01:34:39.522Z,46.33
2017-07-20T01:37:05.637Z,42.20
2017-07-20T01:39:31.805Z,38.10
2017-07-20T01:41:57.932Z,40.20
2017-07-20T01:44:24.812Z,38.97
2017-07-20T01:46:50.946Z,43.07
2017-07-20T01:49:17.062Z,46.50
2017-07-20T01:51:43.198Z,50.70
2017-07-20T01:54:09.409Z,46.50
2017-07-20T01:56:35.557Z,56.93
2017-07-20T01:59:01.658Z,35.97
2017-07-20T02:01:28.597Z,37.50
2017-07-20T02:03:54.718Z,34.80
2017-07-20T02:06:20.853Z,32.80
2017-07-20T02:08:46.993Z,36.03
2017-07-20T02:11:13.192Z,34.77
2017-07-20T02:13:39.304Z,38.13
2017-07-20T02:16:05.433Z,34.80
2017-07-20T02:18:31.534Z,43.73
2017-07-20T02:20:57.673Z,39.23
2017-07-20T02:23:24.509Z,33.60
2017-07-20T02:28:21.601Z,37.97
2017-07-20T02:30:47.633Z,34.77
2017-07-20T02:33:13.672Z,45.50
2017-07-20T02:35:40.519Z,54.80
2017-07-20T02:38:06.545Z,34.73
2017-07-20T02:40:32.577Z,40.63
2017-07-20T02:42:58.620Z,47.73
2017-07-20T02:45:24.677Z,52.43
2017-07-20T02:47:50.705Z,57.87
2017-07-20T02:50:16.804Z,65.40
2017-07-20T02:52:42.849Z,62.73
2017-07-20T02:55:08.877Z,56.20
2017-07-20T02:57:35.676Z,50.77
2017-07-20T03:00:01.700Z,60.43
2017-07-20T03:02:27.783Z,68.50
2017-07-20T03:04:53.821Z,62.83
2017-07-20T03:07:19.880Z,73.83
2017-07-20T03:09:45.972Z,58.23
2017-07-20T03:12:12.740Z,62.40
2017-07-20T03:14:38.764Z,79.20
2017-07-20T03:17:04.773Z,86.53
2017-07-20T03:19:30.817Z,84.97
2017-07-20T03:22:09.057Z,92.10
2017-07-20T03:24:35.143Z,80.80
2017-07-20T03:27:01.152Z,69.70
2017-07-20T03:29:27.205Z,84.40
2017-07-20T03:31:53.236Z,103.97
2017-07-20T03:34:19.284Z,92.50
2017-07-20T03:36:45.404Z,83.40
2017-07-20T03:39:11.455Z,87.90
2017-07-20T03:41:37.489Z,85.73
2017-07-20T03:44:03.633Z,108.73
2017-07-20T03:46:29.653Z,99.93
2017-07-20T03:48:55.712Z,87.70
2017-07-20T03:51:21.761Z,96.80
2017-07-20T03:53:47.777Z,81.53
2017-07-20T03:56:13.828Z,72.47
2017-07-20T03:58:39.842Z,76.20
2017-07-20T04:01:05.877Z,77.47
2017-07-20T04:03:31.893Z,82.40
2017-07-20T04:05:57.937Z,69.13
2017-07-20T04:08:23.957Z,68.50
2017-07-20T04:10:50.008Z,65.53
2017-07-20T04:13:16.053Z,66.17
2017-07-20T04:15:42.840Z,59.03
2017-07-20T04:18:08.864Z,63.97
2017-07-20T04:20:34.900Z,44.40
2017-07-20T04:23:00.947Z,50.13
2017-07-20T04:25:26.993Z,39.40
2017-07-20T04:27:53.042Z,34.60
2017-07-20T04:30:19.113Z,36.70
2017-07-20T04:32:45.139Z,36.13
2017-07-20T04:35:11.304Z,41.43
2017-07-20T04:37:37.355Z,39.07
2017-07-20T04:40:03.392Z,38.00
2017-07-20T04:42:29.494Z,33.00
2017-07-20T04:44:56.271Z,34.63
2017-07-20T04:47:22.340Z,43.57
2017-07-20T04:49:48.388Z,32.63
2017-07-20T04:52:14.404Z,35.97
2017-07-20T04:54:40.510Z,41.20
2017-07-20T04:57:06.561Z,39.17
2017-07-20T04:59:32.705Z,36.77
2017-07-20T05:01:58.729Z,39.90
2017-07-20T05:04:24.779Z,45.13
2017-07-20T05:06:50.814Z,32.20
2017-07-20T05:09:16.837Z,25.80
2017-07-20T05:11:42.953Z,27.93
2017-07-20T05:14:08.981Z,32.47
2017-07-20T05:16:35.082Z,33.50
2017-07-20T05:19:01.121Z,31.70
2017-07-20T05:21:27.140Z,43.13
2017-07-20T05:23:53.176Z,29.67
2017-07-20T05:26:19.189Z,29.50
2017-07-20T05:28:45.228Z,27.40
2017-07-20T05:31:12.055Z,28.13
2017-07-20T05:33:38.203Z,24.27
2017-07-20T05:36:04.247Z,27.43
2017-07-20T05:38:30.309Z,26.27
2017-07-20T05:40:56.380Z,25.13
2017-07-20T05:43:22.425Z,22.57
2017-07-20T05:45:48.506Z,20.87
2017-07-20T05:48:15.282Z,18.27
2017-07-20T05:50:41.301Z,27.50
2017-07-20T05:53:07.337Z,18.57
2017-07-20T05:55:33.368Z,28.43
2017-07-20T05:57:59.532Z,21.93
2017-07-20T06:00:25.560Z,20.73
2017-07-20T06:02:51.785Z,22.87
2017-07-20T06:05:17.845Z,25.83
2017-07-20T06:07:43.868Z,19.93
2017-07-20T06:10:09.916Z,17.40
2017-07-20T06:12:36.256Z,26.10
2017-07-20T06:15:03.120Z,19.80
2017-07-20T06:19:52.200Z,26.03
2017-07-20T06:22:18.245Z,18.90
2017-07-20T06:24:44.305Z,26.13
2017-07-20T06:27:10.459Z,18.37
2017-07-20T06:29:36.713Z,20.97
2017-07-20T06:32:02.898Z,22.23
2017-07-20T06:34:29.176Z,22.40
2017-07-20T06:36:55.234Z,29.67
2017-07-20T06:39:21.406Z,26.97
2017-07-20T06:41:47.458Z,18.03
2017-07-20T06:44:13.631Z,21.83
2017-07-20T06:46:39.739Z,22.40
2017-07-20T06:49:05.861Z,22.80
2017-07-20T06:51:31.925Z,31.97
2017-07-20T06:53:58.047Z,24.30
2017-07-20T06:56:24.153Z,23.13
2017-07-20T06:58:50.194Z,22.03
2017-07-20T07:01:16.253Z,24.57
2017-07-20T07:03:42.403Z,24.20
2017-07-20T07:06:08.477Z,24.07
2017-07-20T07:08:34.527Z,23.40
2017-07-20T07:11:00.657Z,21.43
2017-07-20T07:13:26.738Z,19.47
2017-07-20T07:15:52.904Z,18.90
2017-07-20T07:18:18.982Z,20.37
2017-07-20T07:20:45.794Z,18.67
2017-07-20T07:23:11.850Z,16.30
2017-07-20T07:25:37.898Z,20.33
2017-07-20T07:28:04.034Z,19.80
2017-07-20T07:30:30.151Z,16.40
2017-07-20T07:32:56.272Z,14.73
2017-07-20T07:35:22.369Z,17.30
2017-07-20T07:37:48.489Z,15.70
2017-07-20T07:40:14.533Z,25.90
2017-07-20T07:42:40.626Z,22.33
2017-07-20T07:45:06.686Z,16.53
2017-07-20T07:47:32.782Z,20.90
2017-07-20T07:49:58.938Z,24.17
2017-07-20T07:52:25.075Z,17.10
2017-07-20T07:54:51.124Z,16.90
2017-07-20T07:57:17.319Z,18.10
2017-07-20T07:59:43.390Z,18.10
2017-07-20T08:02:09.443Z,22.50
2017-07-20T08:04:36.250Z,16.60
2017-07-20T08:07:02.345Z,18.37
2017-07-20T08:09:28.473Z,20.23
2017-07-20T08:11:54.513Z,16.87
2017-07-20T08:14:20.577Z,21.67
2017-07-20T08:16:46.609Z,17.53
2017-07-20T08:19:13.427Z,16.20
2017-07-20T08:21:39.507Z,14.97
2017-07-20T08:24:05.581Z,19.33
2017-07-20T08:26:31.624Z,20.87
2017-07-20T08:28:58.409Z,18.50
2017-07-20T08:31:24.488Z,18.40
2017-07-20T08:33:51.277Z,16.23
2017-07-20T08:36:17.378Z,16.47
2017-07-20T08:38:43.445Z,19.83
2017-07-20T08:41:09.514Z,30.40
2017-07-20T08:43:35.545Z,20.20
2017-07-20T08:46:01.589Z,17.87
2017-07-20T08:48:27.639Z,21.13
2017-07-20T08:50:53.704Z,21.27
2017-07-20T08:53:20.506Z,25.57
2017-07-20T08:55:46.570Z,15.27
2017-07-20T08:58:13.594Z,16.73
2017-07-20T09:00:39.687Z,17.77
2017-07-20T09:03:05.733Z,17.40
2017-07-20T09:05:31.801Z,18.40
2017-07-20T09:07:57.854Z,22.33
2017-07-20T09:10:23.917Z,27.17
2017-07-20T09:12:49.985Z,22.20
2017-07-20T09:15:16.034Z,22.90
2017-07-20T09:17:42.122Z,21.47
2017-07-20T09:20:08.206Z,23.33
2017-07-20T09:22:34.262Z,26.67
2017-07-20T09:25:01.079Z,19.50
2017-07-20T09:27:27.148Z,20.60
2017-07-20T09:29:53.223Z,15.10
2017-07-20T09:32:19.342Z,16.40
2017-07-20T09:34:45.411Z,16.80
2017-07-20T09:37:12.225Z,12.50
2017-07-20T09:39:38.274Z,18.30
2017-07-20T09:42:05.091Z,14.43
2017-07-20T09:44:31.141Z,16.17
2017-07-20T09:46:57.954Z,14.07
2017-07-20T09:49:23.993Z,18.93
2017-07-20T09:51:50.837Z,16.33
2017-07-20T09:54:17.625Z,19.30
2017-07-20T09:56:44.138Z,19.57
2017-07-20T09:59:10.195Z,23.60
2017-07-20T10:01:36.257Z,11.60
2017-07-20T10:04:02.332Z,17.60
2017-07-20T10:06:28.490Z,20.00
2017-07-20T10:08:54.550Z,11.17
2017-07-20T10:11:21.358Z,11.77
2017-07-20T10:13:47.414Z,11.10
2017-07-20T10:16:13.453Z,14.40
2017-07-20T10:18:39.533Z,13.53
2017-07-20T10:21:05.589Z,15.20
2017-07-20T10:23:32.386Z,12.03
2017-07-20T10:25:58.425Z,16.10
2017-07-20T10:28:24.482Z,11.37
2017-07-20T10:30:50.642Z,12.80
2017-07-20T10:33:16.771Z,21.50
2017-07-20T10:35:42.834Z,18.30
2017-07-20T10:38:08.918Z,16.33
2017-07-20T10:40:35.014Z,18.03
2017-07-20T10:43:01.083Z,13.73
2017-07-20T10:45:27.141Z,22.53
2017-07-20T10:47:54.022Z,18.57
2017-07-20T10:50:20.058Z,18.70
2017-07-20T10:52:46.137Z,14.50
2017-07-20T10:55:27.142Z,17.87
2017-07-20T10:57:53.219Z,13.40
2017-07-20T11:00:19.274Z,17.60
2017-07-20T11:02:45.334Z,20.67
2017-07-20T11:05:11.426Z,18.40
2017-07-20T11:07:37.498Z,17.43
2017-07-20T11:10:03.554Z,17.77
2017-07-20T11:12:30.438Z,15.23
2017-07-20T11:14:56.478Z,18.17
2017-07-20T11:17:22.539Z,17.23
2017-07-20T11:19:48.598Z,14.20
2017-07-20T11:22:14.693Z,15.47
2017-07-20T11:24:41.503Z,14.03
2017-07-20T11:27:07.570Z,16.70
2017-07-20T11:29:34.419Z,16.50
2017-07-20T11:32:00.478Z,15.93
2017-07-20T11:34:26.543Z,18.27
2017-07-20T11:36:52.601Z,16.50
2017-07-20T11:39:18.690Z,14.93
2017-07-20T11:41:44.770Z,20.30
2017-07-20T11:44:10.826Z,13.40
2017-07-20T11:46:36.886Z,14.00
2017-07-20T11:49:03.702Z,12.00
2017-07-20T11:51:29.752Z,13.57
2017-07-20T11:53:55.818Z,14.83
2017-07-20T11:56:21.914Z,15.63
2017-07-20T11:58:48.270Z,17.83
2017-07-20T12:01:14.331Z,13.23
2017-07-20T12:03:40.400Z,14.63
2017-07-20T12:06:06.445Z,10.40
2017-07-20T12:08:32.512Z,9.97
2017-07-20T12:10:58.557Z,11.83
2017-07-20T12:13:24.624Z,13.30
2017-07-20T12:15:50.670Z,13.50
2017-07-20T12:18:16.733Z,13.60
2017-07-20T12:20:42.786Z,10.27
2017-07-20T12:23:08.869Z,11.37
2017-07-20T12:25:35.655Z,13.17
2017-07-20T12:28:01.726Z,13.20
2017-07-20T12:30:28.574Z,11.70
2017-07-20T12:32:55.389Z,13.20
2017-07-20T12:35:21.445Z,9.80
2017-07-20T12:37:47.503Z,9.53
2017-07-20T12:40:13.567Z,10.50
2017-07-20T12:42:39.625Z,7.30
2017-07-20T12:45:05.695Z,7.90
2017-07-20T12:47:31.749Z,9.60
2017-07-20T12:49:57.817Z,10.20
2017-07-20T12:52:23.875Z,8.00
2017-07-20T12:54:49.958Z,7.70
2017-07-20T12:57:16.042Z,10.10
2017-07-20T12:59:42.118Z,11.20
2017-07-20T13:02:08.174Z,11.30
2017-07-20T13:04:34.235Z,7.43
2017-07-20T13:07:01.026Z,9.70
2017-07-20T13:09:27.094Z,10.97
2017-07-20T13:11:53.138Z,12.63
2017-07-20T13:14:19.208Z,8.90
2017-07-20T13:16:45.249Z,9.73
2017-07-20T13:19:12.097Z,10.10
2017-07-20T13:21:38.149Z,13.43
2017-07-20T13:24:04.213Z,11.37
2017-07-20T13:26:30.281Z,13.13
2017-07-20T13:28:57.070Z,13.90
2017-07-20T13:31:23.154Z,11.90
2017-07-20T13:33:49.943Z,10.30
2017-07-20T13:36:16.008Z,11.90
2017-07-20T13:38:42.045Z,13.93
2017-07-20T13:41:08.117Z,8.03
2017-07-20T13:43:34.168Z,8.80
2017-07-20T13:46:00.228Z,9.03
2017-07-20T13:48:26.314Z,10.63
2017-07-20T13:50:52.401Z,12.77
2017-07-20T13:53:18.512Z,10.43
2017-07-20T13:55:44.561Z,9.83
2017-07-20T13:58:10.626Z,10.43
2017-07-20T14:00:36.802Z,9.30
2017-07-20T14:03:02.866Z,11.10
2017-07-20T14:05:29.070Z,7.83
2017-07-20T14:07:55.122Z,8.60
2017-07-20T14:10:21.198Z,9.83
2017-07-20T14:12:47.267Z,7.87
2017-07-20T14:15:13.334Z,7.50
2017-07-20T14:17:39.366Z,11.03
2017-07-20T14:20:05.478Z,7.83
2017-07-20T14:22:31.534Z,8.50
2017-07-20T14:24:57.621Z,8.27
2017-07-20T14:27:23.709Z,11.23
2017-07-20T14:29:49.849Z,8.03
2017-07-20T14:32:15.926Z,9.03
2017-07-20T14:34:42.064Z,7.20
2017-07-20T14:37:08.099Z,7.83
2017-07-20T14:39:34.154Z,8.40
2017-07-20T14:42:00.199Z,9.20
2017-07-20T14:44:26.250Z,9.87
2017-07-20T14:46:52.331Z,9.57
2017-07-20T14:49:19.233Z,12.63
2017-07-20T14:51:45.335Z,10.40
2017-07-20T14:54:11.406Z,8.10
2017-07-20T14:56:37.465Z,11.77
2017-07-20T14:59:04.262Z,11.57
2017-07-20T15:01:30.308Z,10.47
2017-07-20T15:03:56.446Z,7.97
2017-07-20T15:06:23.221Z,10.27
2017-07-20T15:08:49.274Z,8.93
2017-07-20T15:11:15.363Z,9.33
2017-07-20T15:13:41.510Z,8.53
2017-07-20T15:16:07.588Z,10.50
2017-07-20T15:18:34.418Z,9.63
2017-07-20T15:21:01.253Z,7.50
2017-07-20T15:23:27.342Z,10.20
2017-07-20T15:25:53.462Z,11.70
2017-07-20T15:28:19.586Z,10.67
2017-07-20T15:30:45.646Z,7.40
2017-07-20T15:33:11.703Z,9.57
2017-07-20T15:35:38.554Z,11.37
2017-07-20T15:38:04.705Z,10.70
2017-07-20T15:40:30.893Z,11.57
2017-07-20T15:42:57.803Z,8.90
2017-07-20T15:45:23.849Z,7.33
2017-07-20T15:47:50.394Z,7.60
2017-07-20T15:50:17.263Z,8.27
2017-07-20T15:52:43.328Z,7.47
2017-07-20T15:55:09.396Z,9.13
2017-07-20T15:57:43.038Z,7.53
2017-07-20T16:00:09.109Z,6.50
2017-07-20T16:02:35.169Z,10.00
2017-07-20T16:05:01.231Z,6.83
2017-07-20T16:07:27.386Z,6.73
2017-07-20T16:09:53.433Z,14.13
2017-07-20T16:12:19.544Z,6.90
2017-07-20T16:14:45.606Z,16.80
2017-07-20T16:17:11.747Z,8.90
2017-07-20T16:19:37.794Z,8.37
2017-07-20T16:22:03.857Z,13.73
2017-07-20T16:24:30.030Z,8.30
2017-07-20T16:26:56.090Z,8.17
2017-07-20T16:29:22.154Z,10.27
2017-07-20T16:31:48.194Z,8.97
2017-07-20T16:34:14.462Z,9.37
2017-07-20T16:36:41.281Z,12.00
2017-07-20T16:39:07.334Z,9.97
2017-07-20T16:41:34.154Z,9.40
2017-07-20T16:44:00.201Z,13.80
2017-07-20T16:46:26.262Z,11.80
2017-07-20T16:48:52.299Z,11.07
2017-07-20T16:51:18.621Z,9.23
2017-07-20T16:53:44.662Z,12.23
2017-07-20T16:56:10.754Z,11.77
2017-07-20T16:58:36.830Z,11.30
2017-07-20T17:01:02.893Z,8.60
2017-07-20T17:03:28.990Z,7.40
2017-07-20T17:05:55.798Z,8.30
2017-07-20T17:08:21.865Z,11.70
2017-07-20T17:10:48.666Z,7.20
2017-07-20T17:13:14.756Z,10.00
2017-07-20T17:15:40.827Z,9.57
2017-07-20T17:18:06.909Z,8.20
2017-07-20T17:20:32.957Z,6.83
2017-07-20T17:22:59.077Z,7.63
2017-07-20T17:25:25.126Z,8.60
2017-07-20T17:27:51.215Z,10.10
2017-07-20T17:30:17.304Z,6.87
2017-07-20T17:32:43.401Z,6.10
2017-07-20T17:35:09.449Z,5.83
2017-07-20T17:37:36.229Z,9.60
2017-07-20T17:40:02.310Z,6.37
2017-07-20T17:42:28.372Z,4.80
2017-07-20T17:44:54.665Z,3.77
2017-07-20T17:47:21.469Z,4.83
2017-07-20T17:49:47.549Z,3.90
2017-07-20T17:52:13.598Z,5.90
2017-07-20T17:54:39.650Z,3.83
2017-07-20T17:57:05.726Z,6.00
2017-07-20T17:59:31.804Z,4.40
2017-07-20T18:01:57.885Z,5.03
2017-07-20T18:04:23.942Z,3.37
2017-07-20T18:06:50.039Z,5.70
2017-07-20T18:09:16.107Z,4.80
2017-07-20T18:11:42.179Z,3.93
2017-07-20T18:14:08.222Z,3.70
2017-07-20T18:16:34.267Z,3.97
2017-07-20T18:19:00.334Z,7.33
2017-07-20T18:21:26.426Z,5.73
2017-07-20T18:23:52.498Z,5.67
2017-07-20T18:26:18.566Z,4.40
2017-07-20T18:28:44.669Z,3.70
2017-07-20T18:31:10.713Z,9.90
2017-07-20T18:33:36.786Z,4.47
2017-07-20T18:36:02.849Z,4.03
2017-07-20T18:38:28.942Z,6.50
2017-07-20T18:40:54.986Z,4.00
2017-07-20T18:43:21.053Z,5.63
2017-07-20T18:45:47.101Z,6.47
2017-07-20T18:48:13.920Z,6.70
2017-07-20T18:50:39.979Z,4.33
2017-07-20T18:53:06.043Z,4.90
2017-07-20T18:55:32.098Z,6.47
2017-07-20T18:57:58.215Z,5.00
2017-07-20T19:00:24.269Z,6.20
2017-07-20T19:02:51.082Z,4.97
2017-07-20T19:05:17.162Z,5.70
2017-07-20T19:07:43.227Z,5.90
2017-07-20T19:10:09.269Z,6.20
2017-07-20T19:12:35.330Z,8.80
2017-07-20T19:15:01.382Z,5.97
2017-07-20T19:17:27.451Z,5.67
2017-07-20T19:19:53.493Z,5.90
2017-07-20T19:22:19.554Z,6.50
2017-07-20T19:24:45.596Z,6.10
2017-07-20T19:27:11.676Z,6.50
2017-07-20T19:29:37.731Z,6.83
2017-07-20T19:32:03.815Z,5.97
2017-07-20T19:34:29.889Z,9.00
2017-07-20T19:36:55.951Z,6.83
2017-07-20T19:39:22.000Z,6.93
2017-07-20T19:41:48.074Z,7.23
2017-07-20T19:44:14.147Z,7.40
2017-07-20T19:46:40.214Z,7.70
2017-07-20T19:49:06.265Z,7.10
2017-07-20T19:51:32.310Z,7.30
2017-07-20T19:53:58.389Z,9.33
2017-07-20T19:56:24.469Z,6.87
2017-07-20T19:58:50.526Z,11.13
2017-07-20T20:01:16.573Z,8.37
2017-07-20T20:03:42.631Z,8.87
2017-07-20T20:06:08.702Z,7.90
2017-07-20T20:08:34.770Z,7.47
2017-07-20T20:11:01.558Z,10.70
2017-07-20T20:13:27.639Z,7.07
2017-07-20T20:15:53.682Z,8.70
2017-07-20T20:18:19.750Z,9.60
2017-07-20T20:20:45.802Z,9.40
2017-07-20T20:23:12.602Z,9.83
2017-07-20T20:25:38.650Z,9.10
2017-07-20T20:28:04.710Z,9.57
2017-07-20T20:30:30.768Z,9.23
2017-07-20T20:32:56.877Z,9.10
2017-07-20T20:35:22.917Z,10.53
2017-07-20T20:37:48.958Z,8.63
2017-07-20T20:40:15.017Z,16.93
2017-07-20T20:42:41.871Z,10.20
2017-07-20T20:45:07.954Z,15.40
2017-07-20T20:47:34.026Z,9.53
2017-07-20T20:50:00.102Z,8.87
2017-07-20T20:52:26.146Z,11.53
2017-07-20T20:54:52.972Z,9.40
2017-07-20T20:57:19.062Z,12.03
2017-07-20T20:59:45.141Z,11.93
2017-07-20T21:02:11.943Z,13.20
2017-07-20T21:04:38.058Z,11.37
2017-07-20T21:07:04.102Z,9.10
2017-07-20T21:09:30.207Z,10.33
2017-07-20T21:11:56.355Z,8.93
2017-07-20T21:14:22.414Z,11.87
2017-07-20T21:16:48.506Z,11.93
2017-07-20T21:19:14.550Z,9.00
2017-07-20T21:21:40.610Z,10.57
2017-07-20T21:24:07.899Z,10.07
2017-07-20T21:26:33.970Z,9.83
2017-07-20T21:29:00.022Z,8.10
2017-07-20T21:31:26.101Z,10.33
2017-07-20T21:33:52.382Z,9.57
2017-07-20T21:36:18.451Z,7.67
2017-07-20T21:38:44.519Z,8.27
2017-07-20T21:41:10.621Z,9.60
2017-07-20T21:43:36.678Z,9.80
2017-07-20T21:46:02.739Z,12.70
2017-07-20T21:48:28.806Z,9.90
2017-07-20T21:50:54.873Z,10.97
2017-07-20T21:53:20.934Z,8.43
2017-07-20T21:55:47.759Z,9.40
2017-07-20T21:58:14.561Z,18.83
2017-07-20T22:00:40.631Z,11.60
2017-07-20T22:03:06.670Z,12.63
2017-07-20T22:05:33.482Z,9.33
2017-07-20T22:07:59.631Z,8.73
2017-07-20T22:10:25.839Z,10.67
2017-07-20T22:12:52.759Z,14.00
2017-07-20T22:15:18.974Z,10.83
2017-07-20T22:17:45.157Z,13.00
2017-07-20T22:20:12.111Z,9.43
2017-07-20T22:22:39.018Z,15.70
2017-07-20T22:25:05.222Z,14.90
2017-07-20T22:27:31.437Z,10.30
2017-07-20T22:29:57.628Z,16.67
2017-07-20T22:32:23.801Z,10.10
2017-07-20T22:34:49.978Z,12.33
2017-07-20T22:37:16.880Z,10.77
2017-07-20T22:39:43.098Z,9.93
2017-07-20T22:42:09.289Z,13.97
2017-07-20T22:44:36.225Z,26.73
2017-07-20T22:47:03.165Z,12.67
2017-07-20T22:49:30.123Z,12.13
2017-07-20T22:51:57.032Z,14.20
2017-07-20T22:54:23.202Z,11.03
2017-07-20T22:56:49.406Z,12.17
2017-07-20T22:59:15.550Z,12.57
2017-07-20T23:01:42.485Z,13.83
2017-07-20T23:04:09.401Z,9.10
2017-07-20T23:06:35.607Z,10.90
2017-07-20T23:09:01.776Z,14.50
2017-07-20T23:11:28.722Z,10.73
2017-07-20T23:13:54.926Z,15.07
2017-07-20T23:16:21.147Z,13.57
2017-07-20T23:18:47.340Z,10.20
2017-07-20T23:21:13.537Z,10.87
2017-07-20T23:23:39.715Z,29.80
2017-07-20T23:26:05.900Z,8.83
2017-07-20T23:28:32.813Z,12.17
2017-07-20T23:30:59.019Z,11.90
2017-07-20T23:33:25.202Z,13.40
2017-07-20T23:35:51.443Z,10.57
2017-07-20T23:38:17.626Z,8.67
2017-07-20T23:40:43.795Z,10.67
2017-07-20T23:43:10.008Z,10.67
2017-07-20T23:45:36.927Z,10.13
2017-07-20T23:48:03.133Z,19.60
2017-07-20T23:50:29.326Z,12.70
2017-07-20T23:52:55.513Z,11.43
2017-07-20T23:55:21.705Z,11.30
2017-07-20T23:57:47.897Z,13.00
